sensor_id;sensor_type;location;lat;lon;timestamp;P1;durP1;ratioP1;P2;durP2;ratioP2
9773;SDS011;4926;42.670;23.316;2023-04-06T00:00:50;10.82;;;7.78;;
9773;SDS011;4926;42.670;23.316;2023-04-06T00:03:18;9.82;;;7.60;;
9773;SDS011;4926;42.670;23.316;2023-04-06T00:05:47;10.88;;;8.25;;
9773;SDS011;4926;42.670;23.316;2023-04-06T00:08:17;12.25;;;8.60;;
9773;SDS011;4926;42.670;23.316;2023-04-06T00:10:46;10.57;;;7.63;;
9773;SDS011;4926;42.670;23.316;2023-04-06T00:13:15;10.27;;;7.90;;
9773;SDS011;4926;42.670;23.316;2023-04-06T00:15:42;10.73;;;8.10;;
9773;SDS011;4926;42.670;23.316;2023-04-06T00:18:12;10.77;;;8.55;;
9773;SDS011;4926;42.670;23.316;2023-04-06T00:20:41;10.75;;;8.60;;
9773;SDS011;4926;42.670;23.316;2023-04-06T00:23:11;9.18;;;7.78;;
9773;SDS011;4926;42.670;23.316;2023-04-06T00:25:40;10.18;;;8.13;;
9773;SDS011;4926;42.670;23.316;2023-04-06T00:28:06;9.30;;;7.82;;
9773;SDS011;4926;42.670;23.316;2023-04-06T00:30:33;10.02;;;7.70;;
9773;SDS011;4926;42.670;23.316;2023-04-06T00:33:00;11.38;;;8.73;;
9773;SDS011;4926;42.670;23.316;2023-04-06T00:35:26;11.52;;;8.38;;
9773;SDS011;4926;42.670;23.316;2023-04-06T00:37:55;10.57;;;7.95;;
9773;SDS011;4926;42.670;23.316;2023-04-06T00:40:21;10.82;;;8.32;;
9773;SDS011;4926;42.670;23.316;2023-04-06T00:42:48;9.48;;;7.78;;
9773;SDS011;4926;42.670;23.316;2023-04-06T00:45:15;10.05;;;8.00;;
9773;SDS011;4926;42.670;23.316;2023-04-06T00:47:50;9.23;;;7.68;;
9773;SDS011;4926;42.670;23.316;2023-04-06T00:50:17;9.45;;;7.43;;
9773;SDS011;4926;42.670;23.316;2023-04-06T00:52:45;9.30;;;7.53;;
9773;SDS011;4926;42.670;23.316;2023-04-06T00:55:17;9.52;;;7.78;;
9773;SDS011;4926;42.670;23.316;2023-04-06T00:57:45;9.50;;;8.13;;
9773;SDS011;4926;42.670;23.316;2023-04-06T01:00:13;11.35;;;7.93;;
9773;SDS011;4926;42.670;23.316;2023-04-06T01:02:42;9.52;;;7.35;;
9773;SDS011;4926;42.670;23.316;2023-04-06T01:05:11;8.52;;;6.93;;
9773;SDS011;4926;42.670;23.316;2023-04-06T01:07:38;10.73;;;7.28;;
9773;SDS011;4926;42.670;23.316;2023-04-06T01:10:05;10.45;;;7.38;;
9773;SDS011;4926;42.670;23.316;2023-04-06T01:12:36;8.45;;;6.88;;
9773;SDS011;4926;42.670;23.316;2023-04-06T01:15:04;8.63;;;7.15;;
9773;SDS011;4926;42.670;23.316;2023-04-06T01:17:35;8.00;;;6.15;;
9773;SDS011;4926;42.670;23.316;2023-04-06T01:20:03;7.85;;;7.05;;
9773;SDS011;4926;42.670;23.316;2023-04-06T01:22:32;9.15;;;6.97;;
9773;SDS011;4926;42.670;23.316;2023-04-06T01:24:59;9.15;;;7.20;;
9773;SDS011;4926;42.670;23.316;2023-04-06T01:27:26;8.85;;;7.13;;
9773;SDS011;4926;42.670;23.316;2023-04-06T01:29:54;8.80;;;7.47;;
9773;SDS011;4926;42.670;23.316;2023-04-06T01:32:21;7.70;;;6.70;;
9773;SDS011;4926;42.670;23.316;2023-04-06T01:34:50;7.57;;;6.78;;
9773;SDS011;4926;42.670;23.316;2023-04-06T01:37:20;8.25;;;5.50;;
9773;SDS011;4926;42.670;23.316;2023-04-06T01:39:48;9.35;;;7.50;;
9773;SDS011;4926;42.670;23.316;2023-04-06T01:42:15;12.20;;;8.35;;
9773;SDS011;4926;42.670;23.316;2023-04-06T01:44:41;9.35;;;7.82;;
9773;SDS011;4926;42.670;23.316;2023-04-06T01:47:08;8.82;;;7.20;;
9773;SDS011;4926;42.670;23.316;2023-04-06T01:49:35;9.95;;;7.32;;
9773;SDS011;4926;42.670;23.316;2023-04-06T01:52:02;10.35;;;8.18;;
9773;SDS011;4926;42.670;23.316;2023-04-06T01:54:28;11.30;;;7.82;;
9773;SDS011;4926;42.670;23.316;2023-04-06T01:56:59;10.45;;;8.05;;
9773;SDS011;4926;42.670;23.316;2023-04-06T01:59:26;9.18;;;7.45;;
9773;SDS011;4926;42.670;23.316;2023-04-06T02:01:53;9.73;;;6.97;;
9773;SDS011;4926;42.670;23.316;2023-04-06T02:04:22;10.77;;;8.43;;
9773;SDS011;4926;42.670;23.316;2023-04-06T02:06:48;9.85;;;7.95;;
9773;SDS011;4926;42.670;23.316;2023-04-06T02:09:15;10.10;;;7.93;;
9773;SDS011;4926;42.670;23.316;2023-04-06T02:11:42;8.32;;;7.22;;
9773;SDS011;4926;42.670;23.316;2023-04-06T02:14:10;10.23;;;7.47;;
9773;SDS011;4926;42.670;23.316;2023-04-06T02:16:37;11.88;;;7.45;;
9773;SDS011;4926;42.670;23.316;2023-04-06T02:19:03;9.50;;;6.75;;
9773;SDS011;4926;42.670;23.316;2023-04-06T02:21:30;9.15;;;7.53;;
9773;SDS011;4926;42.670;23.316;2023-04-06T02:23:59;10.35;;;7.72;;
9773;SDS011;4926;42.670;23.316;2023-04-06T02:26:26;10.38;;;7.70;;
9773;SDS011;4926;42.670;23.316;2023-04-06T02:28:55;9.27;;;7.47;;
9773;SDS011;4926;42.670;23.316;2023-04-06T02:31:23;12.98;;;8.20;;
9773;SDS011;4926;42.670;23.316;2023-04-06T02:33:51;9.82;;;7.68;;
9773;SDS011;4926;42.670;23.316;2023-04-06T02:36:18;11.27;;;8.20;;
9773;SDS011;4926;42.670;23.316;2023-04-06T02:38:44;9.75;;;7.88;;
9773;SDS011;4926;42.670;23.316;2023-04-06T02:41:11;11.35;;;8.38;;
9773;SDS011;4926;42.670;23.316;2023-04-06T02:43:38;12.88;;;8.95;;
9773;SDS011;4926;42.670;23.316;2023-04-06T02:46:07;11.52;;;9.13;;
9773;SDS011;4926;42.670;23.316;2023-04-06T02:48:36;10.35;;;8.05;;
9773;SDS011;4926;42.670;23.316;2023-04-06T02:51:03;12.98;;;8.32;;
9773;SDS011;4926;42.670;23.316;2023-04-06T02:53:30;9.57;;;7.10;;
9773;SDS011;4926;42.670;23.316;2023-04-06T02:56:02;9.07;;;7.32;;
9773;SDS011;4926;42.670;23.316;2023-04-06T02:58:29;10.93;;;7.88;;
9773;SDS011;4926;42.670;23.316;2023-04-06T03:00:56;9.30;;;7.03;;
9773;SDS011;4926;42.670;23.316;2023-04-06T03:03:22;9.60;;;6.93;;
9773;SDS011;4926;42.670;23.316;2023-04-06T03:05:53;9.52;;;6.93;;
9773;SDS011;4926;42.670;23.316;2023-04-06T03:08:22;9.50;;;7.10;;
9773;SDS011;4926;42.670;23.316;2023-04-06T03:10:49;7.70;;;5.97;;
9773;SDS011;4926;42.670;23.316;2023-04-06T03:13:16;8.43;;;7.25;;
9773;SDS011;4926;42.670;23.316;2023-04-06T03:15:42;8.68;;;6.82;;
9773;SDS011;4926;42.670;23.316;2023-04-06T03:18:09;7.72;;;5.78;;
9773;SDS011;4926;42.670;23.316;2023-04-06T03:20:36;8.85;;;7.00;;
9773;SDS011;4926;42.670;23.316;2023-04-06T03:23:04;8.50;;;6.97;;
9773;SDS011;4926;42.670;23.316;2023-04-06T03:25:33;8.57;;;7.32;;
9773;SDS011;4926;42.670;23.316;2023-04-06T03:28:04;11.27;;;7.55;;
9773;SDS011;4926;42.670;23.316;2023-04-06T03:30:30;8.65;;;7.18;;
9773;SDS011;4926;42.670;23.316;2023-04-06T03:32:57;9.80;;;7.20;;
9773;SDS011;4926;42.670;23.316;2023-04-06T03:35:24;8.75;;;6.55;;
9773;SDS011;4926;42.670;23.316;2023-04-06T03:37:53;8.27;;;6.72;;
9773;SDS011;4926;42.670;23.316;2023-04-06T03:40:21;8.55;;;6.93;;
9773;SDS011;4926;42.670;23.316;2023-04-06T03:42:48;9.82;;;6.78;;
9773;SDS011;4926;42.670;23.316;2023-04-06T03:45:19;7.65;;;6.85;;
9773;SDS011;4926;42.670;23.316;2023-04-06T03:47:46;7.18;;;6.22;;
9773;SDS011;4926;42.670;23.316;2023-04-06T03:50:12;7.78;;;6.30;;
9773;SDS011;4926;42.670;23.316;2023-04-06T03:52:39;8.48;;;7.05;;
9773;SDS011;4926;42.670;23.316;2023-04-06T03:55:07;8.60;;;6.68;;
9773;SDS011;4926;42.670;23.316;2023-04-06T03:57:39;8.10;;;6.50;;
9773;SDS011;4926;42.670;23.316;2023-04-06T04:00:07;8.23;;;6.43;;
9773;SDS011;4926;42.670;23.316;2023-04-06T04:02:34;8.82;;;6.65;;
9773;SDS011;4926;42.670;23.316;2023-04-06T04:05:04;8.85;;;6.50;;
9773;SDS011;4926;42.670;23.316;2023-04-06T04:07:34;7.43;;;5.13;;
9773;SDS011;4926;42.670;23.316;2023-04-06T04:10:01;7.15;;;5.53;;
9773;SDS011;4926;42.670;23.316;2023-04-06T04:12:28;9.35;;;6.05;;
9773;SDS011;4926;42.670;23.316;2023-04-06T04:14:59;8.15;;;6.78;;
9773;SDS011;4926;42.670;23.316;2023-04-06T04:17:28;9.93;;;6.85;;
9773;SDS011;4926;42.670;23.316;2023-04-06T04:19:55;8.13;;;7.05;;
9773;SDS011;4926;42.670;23.316;2023-04-06T04:22:21;8.27;;;7.00;;
9773;SDS011;4926;42.670;23.316;2023-04-06T04:24:48;12.10;;;7.57;;
9773;SDS011;4926;42.670;23.316;2023-04-06T04:27:15;9.20;;;7.30;;
9773;SDS011;4926;42.670;23.316;2023-04-06T04:29:41;9.95;;;7.53;;
9773;SDS011;4926;42.670;23.316;2023-04-06T04:32:10;8.63;;;7.28;;
9773;SDS011;4926;42.670;23.316;2023-04-06T04:34:37;10.48;;;7.45;;
9773;SDS011;4926;42.670;23.316;2023-04-06T04:37:05;9.80;;;7.68;;
9773;SDS011;4926;42.670;23.316;2023-04-06T04:39:32;9.32;;;6.97;;
9773;SDS011;4926;42.670;23.316;2023-04-06T04:41:58;9.68;;;6.18;;
9773;SDS011;4926;42.670;23.316;2023-04-06T04:44:25;10.93;;;7.90;;
9773;SDS011;4926;42.670;23.316;2023-04-06T04:46:52;10.05;;;6.85;;
9773;SDS011;4926;42.670;23.316;2023-04-06T04:49:20;10.40;;;7.50;;
9773;SDS011;4926;42.670;23.316;2023-04-06T04:51:47;8.55;;;7.07;;
9773;SDS011;4926;42.670;23.316;2023-04-06T04:54:16;9.30;;;7.32;;
9773;SDS011;4926;42.670;23.316;2023-04-06T04:56:43;10.98;;;7.82;;
9773;SDS011;4926;42.670;23.316;2023-04-06T04:59:10;11.60;;;7.60;;
9773;SDS011;4926;42.670;23.316;2023-04-06T05:01:36;9.55;;;7.38;;
9773;SDS011;4926;42.670;23.316;2023-04-06T05:04:03;8.75;;;6.80;;
9773;SDS011;4926;42.670;23.316;2023-04-06T05:06:34;10.25;;;8.10;;
9773;SDS011;4926;42.670;23.316;2023-04-06T05:09:03;10.00;;;8.15;;
9773;SDS011;4926;42.670;23.316;2023-04-06T05:11:30;8.75;;;7.35;;
9773;SDS011;4926;42.670;23.316;2023-04-06T05:13:57;11.00;;;8.80;;
9773;SDS011;4926;42.670;23.316;2023-04-06T05:16:23;11.05;;;8.75;;
9773;SDS011;4926;42.670;23.316;2023-04-06T05:18:50;10.50;;;7.65;;
9773;SDS011;4926;42.670;23.316;2023-04-06T05:21:18;10.85;;;8.88;;
9773;SDS011;4926;42.670;23.316;2023-04-06T05:23:46;11.90;;;7.95;;
9773;SDS011;4926;42.670;23.316;2023-04-06T05:26:16;10.35;;;8.73;;
9773;SDS011;4926;42.670;23.316;2023-04-06T05:28:43;12.90;;;9.48;;
9773;SDS011;4926;42.670;23.316;2023-04-06T05:31:12;12.82;;;8.90;;
9773;SDS011;4926;42.670;23.316;2023-04-06T05:33:39;13.07;;;8.70;;
9773;SDS011;4926;42.670;23.316;2023-04-06T05:36:06;15.05;;;9.65;;
9773;SDS011;4926;42.670;23.316;2023-04-06T05:38:34;10.35;;;8.65;;
9773;SDS011;4926;42.670;23.316;2023-04-06T05:41:06;10.32;;;8.88;;
9773;SDS011;4926;42.670;23.316;2023-04-06T05:43:34;12.88;;;8.80;;
9773;SDS011;4926;42.670;23.316;2023-04-06T05:46:01;11.80;;;9.45;;
9773;SDS011;4926;42.670;23.316;2023-04-06T05:48:28;11.15;;;8.93;;
9773;SDS011;4926;42.670;23.316;2023-04-06T05:50:58;14.02;;;9.93;;
9773;SDS011;4926;42.670;23.316;2023-04-06T05:53:25;12.88;;;9.93;;
9773;SDS011;4926;42.670;23.316;2023-04-06T05:55:54;12.70;;;9.63;;
9773;SDS011;4926;42.670;23.316;2023-04-06T05:58:22;12.48;;;10.07;;
9773;SDS011;4926;42.670;23.316;2023-04-06T06:00:49;14.93;;;10.02;;
9773;SDS011;4926;42.670;23.316;2023-04-06T06:03:15;14.93;;;10.88;;
9773;SDS011;4926;42.670;23.316;2023-04-06T06:05:42;16.75;;;11.23;;
9773;SDS011;4926;42.670;23.316;2023-04-06T06:08:09;12.63;;;9.57;;
9773;SDS011;4926;42.670;23.316;2023-04-06T06:10:37;12.63;;;9.93;;
9773;SDS011;4926;42.670;23.316;2023-04-06T06:13:04;15.93;;;10.30;;
9773;SDS011;4926;42.670;23.316;2023-04-06T06:15:32;12.40;;;9.80;;
9773;SDS011;4926;42.670;23.316;2023-04-06T06:17:59;12.65;;;10.15;;
9773;SDS011;4926;42.670;23.316;2023-04-06T06:20:26;14.45;;;10.90;;
9773;SDS011;4926;42.670;23.316;2023-04-06T06:22:53;18.05;;;12.45;;
9773;SDS011;4926;42.670;23.316;2023-04-06T06:25:21;15.45;;;12.18;;
9773;SDS011;4926;42.670;23.316;2023-04-06T06:27:50;16.42;;;12.05;;
9773;SDS011;4926;42.670;23.316;2023-04-06T06:30:17;15.82;;;12.02;;
9773;SDS011;4926;42.670;23.316;2023-04-06T06:32:45;14.95;;;10.60;;
9773;SDS011;4926;42.670;23.316;2023-04-06T06:35:12;18.52;;;11.95;;
9773;SDS011;4926;42.670;23.316;2023-04-06T06:37:41;16.85;;;12.77;;
9773;SDS011;4926;42.670;23.316;2023-04-06T06:40:10;18.17;;;12.32;;
9773;SDS011;4926;42.670;23.316;2023-04-06T06:42:42;14.32;;;10.77;;
9773;SDS011;4926;42.670;23.316;2023-04-06T06:45:10;14.48;;;11.48;;
9773;SDS011;4926;42.670;23.316;2023-04-06T06:47:37;17.90;;;12.27;;
9773;SDS011;4926;42.670;23.316;2023-04-06T06:50:06;16.98;;;12.38;;
9773;SDS011;4926;42.670;23.316;2023-04-06T06:52:33;13.02;;;8.90;;
9773;SDS011;4926;42.670;23.316;2023-04-06T06:55:05;17.20;;;10.77;;
9773;SDS011;4926;42.670;23.316;2023-04-06T06:57:32;13.85;;;11.10;;
9773;SDS011;4926;42.670;23.316;2023-04-06T07:00:00;15.63;;;10.13;;
9773;SDS011;4926;42.670;23.316;2023-04-06T07:02:28;13.57;;;9.70;;
9773;SDS011;4926;42.670;23.316;2023-04-06T07:04:55;11.90;;;9.02;;
9773;SDS011;4926;42.670;23.316;2023-04-06T07:07:23;11.50;;;8.98;;
9773;SDS011;4926;42.670;23.316;2023-04-06T07:09:50;13.05;;;10.10;;
9773;SDS011;4926;42.670;23.316;2023-04-06T07:12:19;13.48;;;10.20;;
9773;SDS011;4926;42.670;23.316;2023-04-06T07:14:45;12.68;;;10.00;;
9773;SDS011;4926;42.670;23.316;2023-04-06T07:17:12;10.77;;;8.90;;
9773;SDS011;4926;42.670;23.316;2023-04-06T07:19:42;12.93;;;9.48;;
9773;SDS011;4926;42.670;23.316;2023-04-06T07:22:09;13.30;;;8.90;;
9773;SDS011;4926;42.670;23.316;2023-04-06T07:24:37;13.55;;;8.55;;
9773;SDS011;4926;42.670;23.316;2023-04-06T07:27:05;11.63;;;9.70;;
9773;SDS011;4926;42.670;23.316;2023-04-06T07:29:32;12.98;;;10.35;;
9773;SDS011;4926;42.670;23.316;2023-04-06T07:31:59;11.55;;;9.23;;
9773;SDS011;4926;42.670;23.316;2023-04-06T07:34:26;13.52;;;10.00;;
9773;SDS011;4926;42.670;23.316;2023-04-06T07:36:52;12.00;;;10.10;;
9773;SDS011;4926;42.670;23.316;2023-04-06T07:39:19;15.50;;;8.57;;
9773;SDS011;4926;42.670;23.316;2023-04-06T07:41:49;14.63;;;9.80;;
9773;SDS011;4926;42.670;23.316;2023-04-06T07:44:19;14.05;;;10.25;;
9773;SDS011;4926;42.670;23.316;2023-04-06T07:46:46;13.75;;;9.80;;
9773;SDS011;4926;42.670;23.316;2023-04-06T07:49:12;14.25;;;10.13;;
9773;SDS011;4926;42.670;23.316;2023-04-06T07:51:39;13.63;;;9.43;;
9773;SDS011;4926;42.670;23.316;2023-04-06T07:54:06;11.60;;;9.27;;
9773;SDS011;4926;42.670;23.316;2023-04-06T07:56:33;12.93;;;9.38;;
9773;SDS011;4926;42.670;23.316;2023-04-06T07:59:01;14.13;;;9.40;;
9773;SDS011;4926;42.670;23.316;2023-04-06T08:01:28;12.23;;;10.25;;
9773;SDS011;4926;42.670;23.316;2023-04-06T08:03:55;13.07;;;10.07;;
9773;SDS011;4926;42.670;23.316;2023-04-06T08:06:22;14.50;;;10.10;;
9773;SDS011;4926;42.670;23.316;2023-04-06T08:08:49;14.63;;;11.68;;
9773;SDS011;4926;42.670;23.316;2023-04-06T08:11:16;11.88;;;9.50;;
9773;SDS011;4926;42.670;23.316;2023-04-06T08:13:43;13.07;;;10.37;;
9773;SDS011;4926;42.670;23.316;2023-04-06T08:16:11;13.13;;;10.35;;
9773;SDS011;4926;42.670;23.316;2023-04-06T08:18:38;11.45;;;9.45;;
9773;SDS011;4926;42.670;23.316;2023-04-06T08:21:05;11.68;;;8.52;;
9773;SDS011;4926;42.670;23.316;2023-04-06T08:23:31;10.55;;;8.45;;
9773;SDS011;4926;42.670;23.316;2023-04-06T08:25:58;10.93;;;8.65;;
9773;SDS011;4926;42.670;23.316;2023-04-06T08:28:25;14.40;;;11.93;;
9773;SDS011;4926;42.670;23.316;2023-04-06T08:30:52;13.18;;;10.60;;
9773;SDS011;4926;42.670;23.316;2023-04-06T08:33:21;9.30;;;8.27;;
9773;SDS011;4926;42.670;23.316;2023-04-06T08:35:48;10.90;;;8.18;;
9773;SDS011;4926;42.670;23.316;2023-04-06T08:38:15;10.23;;;8.00;;
9773;SDS011;4926;42.670;23.316;2023-04-06T08:40:41;10.95;;;8.38;;
9773;SDS011;4926;42.670;23.316;2023-04-06T08:43:10;9.98;;;7.93;;
9773;SDS011;4926;42.670;23.316;2023-04-06T08:45:40;10.95;;;8.57;;
9773;SDS011;4926;42.670;23.316;2023-04-06T08:48:07;10.65;;;7.85;;
9773;SDS011;4926;42.670;23.316;2023-04-06T08:50:36;10.13;;;7.55;;
9773;SDS011;4926;42.670;23.316;2023-04-06T08:53:04;8.98;;;8.02;;
9773;SDS011;4926;42.670;23.316;2023-04-06T08:55:32;8.98;;;7.00;;
9773;SDS011;4926;42.670;23.316;2023-04-06T08:57:59;12.23;;;8.00;;
9773;SDS011;4926;42.670;23.316;2023-04-06T09:00:26;10.27;;;8.27;;
9773;SDS011;4926;42.670;23.316;2023-04-06T09:02:54;9.55;;;7.75;;
9773;SDS011;4926;42.670;23.316;2023-04-06T09:05:23;10.00;;;8.10;;
9773;SDS011;4926;42.670;23.316;2023-04-06T09:07:52;10.20;;;8.48;;
9773;SDS011;4926;42.670;23.316;2023-04-06T09:10:19;11.32;;;8.25;;
9773;SDS011;4926;42.670;23.316;2023-04-06T09:12:50;10.02;;;7.97;;
9773;SDS011;4926;42.670;23.316;2023-04-06T09:15:21;10.55;;;8.05;;
9773;SDS011;4926;42.670;23.316;2023-04-06T09:17:48;10.63;;;8.02;;
9773;SDS011;4926;42.670;23.316;2023-04-06T09:20:21;9.32;;;8.18;;
9773;SDS011;4926;42.670;23.316;2023-04-06T09:22:50;10.45;;;8.23;;
9773;SDS011;4926;42.670;23.316;2023-04-06T09:25:19;11.20;;;8.93;;
9773;SDS011;4926;42.670;23.316;2023-04-06T09:27:48;10.52;;;8.45;;
9773;SDS011;4926;42.670;23.316;2023-04-06T09:30:24;9.75;;;8.75;;
9773;SDS011;4926;42.670;23.316;2023-04-06T09:32:52;13.80;;;8.88;;
9773;SDS011;4926;42.670;23.316;2023-04-06T09:35:20;11.38;;;9.02;;
9773;SDS011;4926;42.670;23.316;2023-04-06T09:37:48;10.95;;;8.20;;
9773;SDS011;4926;42.670;23.316;2023-04-06T09:40:17;10.82;;;8.07;;
9773;SDS011;4926;42.670;23.316;2023-04-06T09:42:44;9.77;;;8.27;;
9773;SDS011;4926;42.670;23.316;2023-04-06T09:45:13;16.10;;;9.32;;
9773;SDS011;4926;42.670;23.316;2023-04-06T09:47:42;8.27;;;7.03;;
9773;SDS011;4926;42.670;23.316;2023-04-06T09:50:11;8.38;;;7.47;;
9773;SDS011;4926;42.670;23.316;2023-04-06T09:52:40;13.65;;;10.70;;
9773;SDS011;4926;42.670;23.316;2023-04-06T09:55:09;13.20;;;10.30;;
9773;SDS011;4926;42.670;23.316;2023-04-06T09:57:41;8.90;;;8.00;;
9773;SDS011;4926;42.670;23.316;2023-04-06T10:00:14;10.02;;;7.60;;
9773;SDS011;4926;42.670;23.316;2023-04-06T10:02:50;9.45;;;7.47;;
9773;SDS011;4926;42.670;23.316;2023-04-06T10:05:26;11.60;;;8.40;;
9773;SDS011;4926;42.670;23.316;2023-04-06T10:08:00;10.70;;;8.00;;
9773;SDS011;4926;42.670;23.316;2023-04-06T10:10:31;8.82;;;7.40;;
9773;SDS011;4926;42.670;23.316;2023-04-06T10:13:00;9.75;;;7.60;;
9773;SDS011;4926;42.670;23.316;2023-04-06T10:15:27;9.02;;;7.30;;
9773;SDS011;4926;42.670;23.316;2023-04-06T10:17:54;9.07;;;6.93;;
9773;SDS011;4926;42.670;23.316;2023-04-06T10:20:23;10.10;;;7.43;;
9773;SDS011;4926;42.670;23.316;2023-04-06T10:22:55;9.77;;;7.35;;
9773;SDS011;4926;42.670;23.316;2023-04-06T10:25:28;9.02;;;7.65;;
9773;SDS011;4926;42.670;23.316;2023-04-06T10:28:04;9.35;;;7.75;;
9773;SDS011;4926;42.670;23.316;2023-04-06T10:30:32;12.10;;;7.43;;
9773;SDS011;4926;42.670;23.316;2023-04-06T10:32:59;8.82;;;7.03;;
9773;SDS011;4926;42.670;23.316;2023-04-06T10:35:38;10.48;;;7.60;;
9773;SDS011;4926;42.670;23.316;2023-04-06T10:38:04;8.55;;;7.25;;
9773;SDS011;4926;42.670;23.316;2023-04-06T10:40:32;7.45;;;6.65;;
9773;SDS011;4926;42.670;23.316;2023-04-06T10:43:10;8.45;;;7.07;;
9773;SDS011;4926;42.670;23.316;2023-04-06T10:45:38;8.13;;;7.03;;
9773;SDS011;4926;42.670;23.316;2023-04-06T10:48:14;9.52;;;7.45;;
9773;SDS011;4926;42.670;23.316;2023-04-06T10:50:42;11.82;;;7.65;;
9773;SDS011;4926;42.670;23.316;2023-04-06T10:53:10;8.55;;;7.65;;
9773;SDS011;4926;42.670;23.316;2023-04-06T10:55:38;10.40;;;7.85;;
9773;SDS011;4926;42.670;23.316;2023-04-06T10:58:06;8.82;;;7.45;;
9773;SDS011;4926;42.670;23.316;2023-04-06T11:00:42;10.85;;;6.90;;
9773;SDS011;4926;42.670;23.316;2023-04-06T11:03:10;11.70;;;7.78;;
9773;SDS011;4926;42.670;23.316;2023-04-06T11:05:42;13.02;;;7.65;;
9773;SDS011;4926;42.670;23.316;2023-04-06T11:08:10;8.85;;;7.45;;
9773;SDS011;4926;42.670;23.316;2023-04-06T11:10:36;9.07;;;7.07;;
9773;SDS011;4926;42.670;23.316;2023-04-06T11:13:03;7.60;;;6.80;;
9773;SDS011;4926;42.670;23.316;2023-04-06T11:15:33;9.18;;;7.60;;
9773;SDS011;4926;42.670;23.316;2023-04-06T11:18:04;10.85;;;7.47;;
9773;SDS011;4926;42.670;23.316;2023-04-06T11:20:31;9.27;;;6.93;;
9773;SDS011;4926;42.670;23.316;2023-04-06T11:22:58;9.80;;;7.30;;
9773;SDS011;4926;42.670;23.316;2023-04-06T11:25:25;9.73;;;8.05;;
9773;SDS011;4926;42.670;23.316;2023-04-06T11:27:52;9.68;;;7.50;;
9773;SDS011;4926;42.670;23.316;2023-04-06T11:30:25;8.73;;;7.72;;
9773;SDS011;4926;42.670;23.316;2023-04-06T11:32:52;8.98;;;7.95;;
9773;SDS011;4926;42.670;23.316;2023-04-06T11:35:30;8.75;;;7.32;;
9773;SDS011;4926;42.670;23.316;2023-04-06T11:37:59;7.97;;;6.97;;
9773;SDS011;4926;42.670;23.316;2023-04-06T11:40:29;8.82;;;7.75;;
9773;SDS011;4926;42.670;23.316;2023-04-06T11:42:58;8.55;;;6.80;;
9773;SDS011;4926;42.670;23.316;2023-04-06T11:45:24;7.82;;;6.82;;
9773;SDS011;4926;42.670;23.316;2023-04-06T11:47:59;9.32;;;7.63;;
9773;SDS011;4926;42.670;23.316;2023-04-06T11:50:32;8.32;;;7.43;;
9773;SDS011;4926;42.670;23.316;2023-04-06T11:53:00;8.95;;;7.47;;
9773;SDS011;4926;42.670;23.316;2023-04-06T11:55:28;8.10;;;6.50;;
9773;SDS011;4926;42.670;23.316;2023-04-06T11:57:54;7.80;;;6.90;;
9773;SDS011;4926;42.670;23.316;2023-04-06T12:00:24;8.98;;;7.35;;
9773;SDS011;4926;42.670;23.316;2023-04-06T12:02:51;7.50;;;6.38;;
9773;SDS011;4926;42.670;23.316;2023-04-06T12:05:18;9.88;;;6.75;;
9773;SDS011;4926;42.670;23.316;2023-04-06T12:07:49;8.23;;;6.75;;
9773;SDS011;4926;42.670;23.316;2023-04-06T12:10:18;8.32;;;7.07;;
9773;SDS011;4926;42.670;23.316;2023-04-06T12:12:45;10.07;;;7.35;;
9773;SDS011;4926;42.670;23.316;2023-04-06T12:15:12;11.27;;;8.57;;
9773;SDS011;4926;42.670;23.316;2023-04-06T12:17:38;10.80;;;8.02;;
9773;SDS011;4926;42.670;23.316;2023-04-06T12:20:05;10.00;;;7.78;;
9773;SDS011;4926;42.670;23.316;2023-04-06T12:22:32;8.98;;;7.72;;
9773;SDS011;4926;42.670;23.316;2023-04-06T12:25:01;7.40;;;6.63;;
9773;SDS011;4926;42.670;23.316;2023-04-06T12:27:27;11.55;;;7.10;;
9773;SDS011;4926;42.670;23.316;2023-04-06T12:29:54;9.95;;;7.15;;
9773;SDS011;4926;42.670;23.316;2023-04-06T12:32:21;8.48;;;7.28;;
9773;SDS011;4926;42.670;23.316;2023-04-06T12:34:48;10.57;;;7.40;;
9773;SDS011;4926;42.670;23.316;2023-04-06T12:37:15;9.10;;;7.80;;
9773;SDS011;4926;42.670;23.316;2023-04-06T12:39:45;9.55;;;7.40;;
9773;SDS011;4926;42.670;23.316;2023-04-06T12:42:13;8.68;;;7.40;;
9773;SDS011;4926;42.670;23.316;2023-04-06T12:44:40;8.60;;;7.10;;
9773;SDS011;4926;42.670;23.316;2023-04-06T12:47:08;8.13;;;6.78;;
9773;SDS011;4926;42.670;23.316;2023-04-06T12:49:36;10.77;;;6.63;;
9773;SDS011;4926;42.670;23.316;2023-04-06T12:52:02;9.10;;;7.10;;
9773;SDS011;4926;42.670;23.316;2023-04-06T12:54:29;9.48;;;7.65;;
9773;SDS011;4926;42.670;23.316;2023-04-06T12:56:56;8.38;;;7.55;;
9773;SDS011;4926;42.670;23.316;2023-04-06T12:59:24;10.40;;;8.48;;
9773;SDS011;4926;42.670;23.316;2023-04-06T13:01:59;9.15;;;8.20;;
9773;SDS011;4926;42.670;23.316;2023-04-06T13:04:29;11.13;;;8.43;;
9773;SDS011;4926;42.670;23.316;2023-04-06T13:06:56;9.80;;;7.10;;
9773;SDS011;4926;42.670;23.316;2023-04-06T13:09:23;10.35;;;7.90;;
9773;SDS011;4926;42.670;23.316;2023-04-06T13:11:51;10.57;;;7.55;;
9773;SDS011;4926;42.670;23.316;2023-04-06T13:14:18;11.40;;;8.88;;
9773;SDS011;4926;42.670;23.316;2023-04-06T13:16:47;10.88;;;7.70;;
9773;SDS011;4926;42.670;23.316;2023-04-06T13:19:14;9.85;;;7.50;;
9773;SDS011;4926;42.670;23.316;2023-04-06T13:21:41;11.80;;;7.70;;
9773;SDS011;4926;42.670;23.316;2023-04-06T13:24:08;9.75;;;8.05;;
9773;SDS011;4926;42.670;23.316;2023-04-06T13:26:35;10.23;;;7.93;;
9773;SDS011;4926;42.670;23.316;2023-04-06T13:29:02;10.63;;;8.20;;
9773;SDS011;4926;42.670;23.316;2023-04-06T13:31:28;8.32;;;7.47;;
9773;SDS011;4926;42.670;23.316;2023-04-06T13:33:56;9.93;;;7.70;;
9773;SDS011;4926;42.670;23.316;2023-04-06T13:36:23;11.18;;;7.22;;
9773;SDS011;4926;42.670;23.316;2023-04-06T13:38:51;10.68;;;8.45;;
9773;SDS011;4926;42.670;23.316;2023-04-06T13:41:19;9.63;;;7.60;;
9773;SDS011;4926;42.670;23.316;2023-04-06T13:43:47;8.48;;;7.57;;
9773;SDS011;4926;42.670;23.316;2023-04-06T13:46:15;9.07;;;7.07;;
9773;SDS011;4926;42.670;23.316;2023-04-06T13:48:44;8.65;;;6.70;;
9773;SDS011;4926;42.670;23.316;2023-04-06T13:51:13;8.25;;;6.68;;
9773;SDS011;4926;42.670;23.316;2023-04-06T13:53:43;8.23;;;6.55;;
9773;SDS011;4926;42.670;23.316;2023-04-06T13:56:10;10.43;;;7.53;;
9773;SDS011;4926;42.670;23.316;2023-04-06T13:58:37;11.25;;;7.03;;
9773;SDS011;4926;42.670;23.316;2023-04-06T14:01:04;9.82;;;7.15;;
9773;SDS011;4926;42.670;23.316;2023-04-06T14:03:32;9.38;;;7.38;;
9773;SDS011;4926;42.670;23.316;2023-04-06T14:05:59;7.40;;;6.45;;
9773;SDS011;4926;42.670;23.316;2023-04-06T14:08:27;9.70;;;7.95;;
9773;SDS011;4926;42.670;23.316;2023-04-06T14:10:54;8.02;;;7.00;;
9773;SDS011;4926;42.670;23.316;2023-04-06T14:13:21;8.00;;;7.20;;
9773;SDS011;4926;42.670;23.316;2023-04-06T14:15:52;10.45;;;7.15;;
9773;SDS011;4926;42.670;23.316;2023-04-06T14:18:23;9.70;;;8.05;;
9773;SDS011;4926;42.670;23.316;2023-04-06T14:20:55;12.27;;;8.52;;
9773;SDS011;4926;42.670;23.316;2023-04-06T14:23:23;11.20;;;8.25;;
9773;SDS011;4926;42.670;23.316;2023-04-06T14:25:55;9.30;;;7.13;;
9773;SDS011;4926;42.670;23.316;2023-04-06T14:28:27;10.23;;;7.53;;
9773;SDS011;4926;42.670;23.316;2023-04-06T14:30:54;10.90;;;7.75;;
9773;SDS011;4926;42.670;23.316;2023-04-06T14:33:21;7.90;;;6.95;;
9773;SDS011;4926;42.670;23.316;2023-04-06T14:35:47;10.63;;;7.55;;
9773;SDS011;4926;42.670;23.316;2023-04-06T14:38:14;11.27;;;7.68;;
9773;SDS011;4926;42.670;23.316;2023-04-06T14:40:41;9.27;;;7.63;;
9773;SDS011;4926;42.670;23.316;2023-04-06T14:43:11;13.35;;;7.65;;
9773;SDS011;4926;42.670;23.316;2023-04-06T14:45:37;9.48;;;7.22;;
9773;SDS011;4926;42.670;23.316;2023-04-06T14:48:04;10.15;;;7.10;;
9773;SDS011;4926;42.670;23.316;2023-04-06T14:50:32;11.57;;;7.60;;
9773;SDS011;4926;42.670;23.316;2023-04-06T14:52:59;9.88;;;8.23;;
9773;SDS011;4926;42.670;23.316;2023-04-06T14:55:26;9.20;;;7.32;;
9773;SDS011;4926;42.670;23.316;2023-04-06T14:57:52;13.68;;;8.23;;